Time;durP1;ratioP1;P1;durP2;ratioP2;P2;SDS_P1;SDS_P2;PMS_P1;PMS_P2;Temp;Humidity;BMP_temperature;BMP_pressure;BME280_temperature;BME280_humidity;BME280_pressure;Samples;Min_cycle;Max_cycle;Signal;HPM_P1;HPM_P2
2023/01/18 00:00:05;;;;;;;6.80;5.43;;;;;;;6.53;57.45;94493.88;5044456;28;20429;-72
2023/01/18 00:02:30;;;;;;;6.87;5.67;;;;;;;6.54;57.50;94512.88;5058899;28;20240;-72
2023/01/18 00:04:56;;;;;;;6.50;5.13;;;;;;;6.52;57.21;94505.28;5045339;28;20423;-70
2023/01/18 00:07:21;;;;;;;7.37;5.70;;;;;;;6.59;57.14;94507.91;5067936;28;20914;-70
2023/01/18 00:09:47;;;;;;;6.47;5.70;;;;;;;6.49;57.26;94510.88;5052797;28;20197;-70
2023/01/18 00:12:12;;;;;;;6.63;5.60;;;;;;;6.50;57.28;94504.66;5040665;28;20713;-71
2023/01/18 00:14:38;;;;;;;6.20;5.53;;;;;;;6.48;56.91;94506.66;5059889;28;20351;-71
2023/01/18 00:17:03;;;;;;;6.47;5.80;;;;;;;6.44;57.09;94511.44;5046134;28;20211;-71
2023/01/18 00:19:29;;;;;;;6.70;5.30;;;;;;;6.42;57.36;94510.84;5064449;28;20207;-71
2023/01/18 00:21:54;;;;;;;6.23;5.40;;;;;;;6.39;57.22;94511.22;5063350;28;20696;-71
2023/01/18 00:24:22;;;;;;;6.27;5.03;;;;;;;6.43;57.15;94509.03;5063172;28;20578;-71
2023/01/18 00:26:48;;;;;;;7.23;5.53;;;;;;;6.47;56.88;94505.06;5060821;28;20304;-70
2023/01/18 00:29:14;;;;;;;7.70;5.40;;;;;;;6.46;57.33;94506.03;5069562;28;20456;-71
2023/01/18 00:31:39;;;;;;;6.83;6.13;;;;;;;6.41;57.10;94498.03;5063934;28;20514;-71
2023/01/18 00:34:05;;;;;;;6.77;6.07;;;;;;;6.43;57.56;94504.63;5061606;28;20206;-71
2023/01/18 00:36:31;;;;;;;7.70;5.70;;;;;;;6.41;57.75;94516.25;5059148;28;20282;-71
2023/01/18 00:38:57;;;;;;;7.10;6.27;;;;;;;6.26;57.94;94514.56;5066476;28;20451;-72
2023/01/18 00:41:22;;;;;;;6.43;5.70;;;;;;;6.26;58.19;94519.75;5066244;28;20187;-71
2023/01/18 00:43:48;;;;;;;8.53;6.63;;;;;;;6.34;58.36;94515.38;5064637;28;20226;-71
2023/01/18 00:46:16;;;;;;;7.07;5.87;;;;;;;6.34;58.15;94518.81;5070240;28;20650;-70
2023/01/18 00:48:43;;;;;;;7.50;5.93;;;;;;;6.25;58.20;94525.94;5070277;28;20187;-71
2023/01/18 00:51:12;;;;;;;6.87;6.17;;;;;;;6.25;58.28;94520.75;5069939;28;20428;-71
2023/01/18 00:53:38;;;;;;;8.97;6.60;;;;;;;6.26;58.18;94530.16;5061697;28;20540;-71
2023/01/18 00:56:08;;;;;;;9.43;6.63;;;;;;;6.17;57.98;94518.31;5067011;28;20785;-72
2023/01/18 00:58:33;;;;;;;6.57;5.87;;;;;;;6.21;58.11;94519.50;5064800;28;20413;-72
2023/01/18 01:00:59;;;;;;;7.50;6.00;;;;;;;6.19;58.69;94526.69;5062221;28;20425;-71
2023/01/18 01:03:25;;;;;;;7.20;6.07;;;;;;;6.19;58.48;94520.69;5064131;28;20207;-71
2023/01/18 01:08:34;;;;;;;7.17;6.10;;;;;;;6.14;58.56;94524.66;5060776;28;20189;-71
2023/01/18 01:11:07;;;;;;;6.63;5.40;;;;;;;6.17;58.66;94520.91;5061913;28;20795;-72
2023/01/18 01:27:16;;;;;;;7.63;6.30;;;;;;;6.25;57.84;94533.75;5067339;28;20920;-70
2023/01/18 01:29:42;;;;;;;7.63;6.73;;;;;;;6.28;58.25;94537.75;5063298;28;20425;-71
2023/01/18 01:32:07;;;;;;;7.53;6.70;;;;;;;6.33;57.73;94542.38;5061119;28;20489;-72
2023/01/18 01:34:33;;;;;;;7.80;6.90;;;;;;;6.38;57.71;94540.03;5076209;28;20441;-73
2023/01/18 01:36:58;;;;;;;8.70;7.27;;;;;;;6.38;57.33;94540.81;5071316;28;20270;-72
2023/01/18 01:39:24;;;;;;;7.67;6.60;;;;;;;6.37;57.15;94539.22;5058291;28;20246;-70
2023/01/18 01:41:49;;;;;;;7.53;6.53;;;;;;;6.34;57.18;94544.00;5062860;28;20194;-70
2023/01/18 01:47:40;;;;;;;10.07;7.83;;;;;;;6.31;57.36;94545.19;5034841;28;20206;-72
2023/01/18 01:50:16;;;;;;;9.30;7.53;;;;;;;6.25;57.18;94549.34;5035410;28;20438;-72
2023/01/18 01:52:44;;;;;;;9.93;8.40;;;;;;;6.30;57.41;94553.97;5071098;28;20453;-70
2023/01/18 01:55:21;;;;;;;8.90;8.00;;;;;;;6.33;57.37;94550.19;5059367;28;20429;-71
2023/01/18 01:57:55;;;;;;;8.57;7.60;;;;;;;6.37;56.98;94559.22;5065841;28;20432;-71
2023/01/18 02:00:24;;;;;;;12.03;9.57;;;;;;;6.38;57.06;94558.25;5048538;28;20505;-69
2023/01/18 02:03:03;;;;;;;11.27;9.40;;;;;;;6.35;56.97;94558.59;5060971;28;20444;-71
2023/01/18 02:05:29;;;;;;;12.57;10.00;;;;;;;6.36;57.16;94568.03;5063980;28;20435;-70
2023/01/18 02:07:58;;;;;;;11.13;9.30;;;;;;;6.33;57.21;94569.22;5055045;28;20434;-71
2023/01/18 02:10:24;;;;;;;11.87;9.23;;;;;;;6.30;57.24;94564.38;5064402;28;20426;-71
2023/01/18 02:12:50;;;;;;;10.73;8.70;;;;;;;6.23;57.14;94564.34;5062827;28;20474;-71
2023/01/18 02:15:16;;;;;;;12.50;9.13;;;;;;;6.24;57.67;94565.94;5056978;28;20190;-69
2023/01/18 02:17:54;;;;;;;11.27;8.83;;;;;;;6.26;57.69;94566.56;5052232;28;20425;-69
2023/01/18 02:20:37;;;;;;;10.70;9.23;;;;;;;6.22;57.53;94567.16;5053542;28;20791;-70
2023/01/18 02:23:40;;;;;;;10.60;8.33;;;;;;;6.14;58.01;94574.06;5017351;28;20474;-70
2023/01/18 02:26:23;;;;;;;10.57;8.60;;;;;;;6.21;57.45;94570.72;5048487;28;20425;-70
2023/01/18 02:28:58;;;;;;;10.43;8.50;;;;;;;6.25;57.67;94577.97;5059524;28;20460;-70
2023/01/18 02:31:28;;;;;;;14.00;9.40;;;;;;;6.25;57.26;94577.16;5068342;28;20921;-70
2023/01/18 02:33:58;;;;;;;10.47;8.47;;;;;;;6.23;57.35;94585.16;5053197;28;20450;-71
2023/01/18 02:36:41;;;;;;;10.23;8.47;;;;;;;6.27;57.67;94585.56;5065933;28;20519;-69
2023/01/18 02:39:21;;;;;;;12.50;9.17;;;;;;;6.25;57.64;94585.75;5053900;28;20413;-69
2023/01/18 02:47:25;;;;;;;12.13;9.63;;;;;;;6.28;57.29;94601.00;5057948;28;20575;-71
2023/01/18 02:49:50;;;;;;;10.20;8.67;;;;;;;6.33;56.82;94604.81;5056000;28;20511;-69
2023/01/18 02:52:37;;;;;;;10.03;8.07;;;;;;;6.13;57.64;94600.28;5060778;28;20486;-70
2023/01/18 02:55:02;;;;;;;11.10;9.23;;;;;;;6.00;57.68;94606.16;5058660;28;20654;-72
2023/01/18 02:57:28;;;;;;;10.47;8.83;;;;;;;6.10;57.31;94608.44;5055805;28;20421;-71
2023/01/18 02:59:55;;;;;;;9.40;7.80;;;;;;;6.15;57.05;94608.69;5058784;28;20206;-70
2023/01/18 03:02:23;;;;;;;11.17;9.20;;;;;;;6.20;56.92;94614.13;5061639;28;21032;-69
2023/01/18 03:04:55;;;;;;;9.77;8.30;;;;;;;6.18;56.73;94613.50;5056358;28;20468;-69
2023/01/18 03:07:30;;;;;;;12.60;9.87;;;;;;;6.10;57.49;94611.06;5059942;28;20997;-70
2023/01/18 03:09:57;;;;;;;12.27;10.53;;;;;;;6.14;56.92;94612.28;5057328;28;20425;-70
2023/01/18 03:12:44;;;;;;;12.90;10.00;;;;;;;6.12;57.41;94607.25;5061179;28;20449;-70
2023/01/18 03:15:19;;;;;;;13.27;10.77;;;;;;;6.10;57.40;94605.84;5051481;28;20784;-70
2023/01/18 03:17:59;;;;;;;12.57;9.80;;;;;;;6.13;57.48;94605.47;5067273;28;20947;-71
2023/01/18 03:20:29;;;;;;;15.00;10.73;;;;;;;6.03;57.44;94603.19;5051228;28;20425;-70
2023/01/18 03:25:56;;;;;;;14.30;10.60;;;;;;;5.99;58.25;94607.13;5050609;28;20444;-71
2023/01/18 03:34:08;;;;;;;12.73;9.87;;;;;;;6.07;57.07;94607.03;5054715;28;20438;-71
2023/01/18 03:36:40;;;;;;;12.40;9.70;;;;;;;6.09;57.21;94609.44;5053488;28;20579;-69
2023/01/18 03:39:09;;;;;;;13.90;10.10;;;;;;;6.10;56.72;94608.44;5049213;28;20476;-74
2023/01/18 03:41:40;;;;;;;10.93;9.10;;;;;;;6.05;56.95;94603.03;5054252;28;20426;-71
2023/01/18 03:44:12;;;;;;;12.43;9.47;;;;;;;5.93;57.07;94616.47;5049909;28;20453;-69
2023/01/18 03:46:39;;;;;;;10.80;8.87;;;;;;;5.94;57.77;94618.09;5056710;28;20430;-71
2023/01/18 03:49:05;;;;;;;10.43;8.23;;;;;;;5.92;57.26;94614.84;5035766;28;20476;-70
2023/01/18 03:51:35;;;;;;;12.60;9.27;;;;;;;5.82;57.51;94614.38;5049734;28;20426;-70
2023/01/18 03:54:14;;;;;;;11.30;8.90;;;;;;;5.74;57.86;94617.09;5049067;28;20445;-70
2023/01/18 03:56:42;;;;;;;12.27;9.13;;;;;;;5.78;58.02;94619.16;5049790;28;20425;-70
2023/01/18 03:59:08;;;;;;;11.20;8.70;;;;;;;5.73;57.96;94631.09;5049353;28;20434;-71
2023/01/18 04:01:34;;;;;;;11.17;9.07;;;;;;;5.79;58.29;94636.34;5054802;28;20425;-71
2023/01/18 04:04:00;;;;;;;12.87;9.53;;;;;;;5.81;57.92;94639.56;5046271;28;20510;-72
2023/01/18 04:06:25;;;;;;;11.93;8.73;;;;;;;5.89;57.80;94641.25;5035485;28;20222;-70
2023/01/18 04:08:51;;;;;;;8.93;7.70;;;;;;;5.87;57.34;94651.03;5053993;28;20186;-71
2023/01/18 04:11:17;;;;;;;12.80;8.63;;;;;;;5.89;57.84;94649.03;5055536;28;20194;-70
2023/01/18 04:13:43;;;;;;;11.70;8.53;;;;;;;5.92;57.46;94650.47;5056212;28;20440;-70
2023/01/18 04:16:08;;;;;;;9.80;7.80;;;;;;;5.97;57.70;94651.50;5054242;28;20973;-71
2023/01/18 04:18:34;;;;;;;11.23;7.97;;;;;;;5.86;57.27;94654.59;5053029;28;20181;-71
2023/01/18 04:21:00;;;;;;;10.10;8.20;;;;;;;5.77;57.56;94656.53;5047469;28;20253;-70
2023/01/18 04:23:26;;;;;;;8.80;7.53;;;;;;;5.85;57.91;94663.41;5054307;28;20219;-71
2023/01/18 04:25:51;;;;;;;10.00;7.47;;;;;;;5.90;57.59;94668.84;5049850;28;20294;-71
2023/01/18 04:28:24;;;;;;;9.83;7.73;;;;;;;5.92;57.37;94671.25;5055738;28;20567;-70
2023/01/18 04:30:51;;;;;;;10.00;7.50;;;;;;;5.92;57.35;94671.25;5045109;28;20237;-70
2023/01/18 04:33:18;;;;;;;12.23;7.70;;;;;;;5.90;57.18;94674.06;5048226;28;20457;-71
2023/01/18 04:35:46;;;;;;;10.50;8.63;;;;;;;5.91;57.42;94673.06;5048388;28;20433;-70
2023/01/18 04:38:12;;;;;;;9.13;7.73;;;;;;;5.84;57.41;94679.97;5049420;28;20461;-71
2023/01/18 04:40:37;;;;;;;10.50;8.13;;;;;;;5.91;57.90;94673.06;5053406;28;20806;-70
2023/01/18 04:43:03;;;;;;;11.17;8.67;;;;;;;5.91;58.07;94669.66;5065791;28;20292;-70
2023/01/18 04:45:29;;;;;;;13.10;9.10;;;;;;;5.92;57.54;94677.25;5052854;28;20175;-72
2023/01/18 04:47:54;;;;;;;10.57;8.47;;;;;;;5.87;57.97;94684.00;5052532;28;20673;-72
2023/01/18 04:50:20;;;;;;;8.30;7.00;;;;;;;5.85;57.83;94691.97;5052829;28;20270;-72
2023/01/18 04:52:45;;;;;;;9.50;7.83;;;;;;;5.82;57.50;94690.56;5053081;28;20203;-71
2023/01/18 04:55:14;;;;;;;8.40;7.47;;;;;;;5.84;57.61;94692.97;5052462;28;20213;-71
2023/01/18 04:57:40;;;;;;;8.23;7.10;;;;;;;5.78;58.01;94702.31;5050445;28;21417;-72
2023/01/18 05:00:07;;;;;;;10.30;7.03;;;;;;;5.78;58.08;94701.53;5052487;28;20512;-72
2023/01/18 05:02:33;;;;;;;9.50;7.87;;;;;;;5.72;58.44;94708.25;5052336;28;20498;-71
2023/01/18 05:04:58;;;;;;;8.50;7.33;;;;;;;5.79;58.20;94718.72;5052519;28;20948;-71
2023/01/18 05:07:24;;;;;;;8.27;7.40;;;;;;;5.76;57.79;94714.69;5051337;28;20191;-71
2023/01/18 05:09:50;;;;;;;9.27;8.30;;;;;;;5.79;57.63;94729.13;5052551;28;20192;-71
2023/01/18 05:12:15;;;;;;;8.33;7.40;;;;;;;5.78;57.71;94730.09;5052265;28;20445;-69
2023/01/18 05:14:41;;;;;;;8.30;7.30;;;;;;;5.72;58.06;94736.84;5052310;28;20183;-70
2023/01/18 05:17:06;;;;;;;8.23;7.20;;;;;;;5.68;57.69;94744.19;5051115;28;20650;-71
2023/01/18 05:19:32;;;;;;;9.57;7.43;;;;;;;5.74;58.03;94750.44;5057217;28;20282;-72
2023/01/18 05:21:57;;;;;;;10.07;7.53;;;;;;;5.75;57.77;94757.25;5052982;28;20241;-71
2023/01/18 05:24:23;;;;;;;11.60;7.77;;;;;;;5.69;57.99;94761.38;5056304;28;20207;-70
2023/01/18 05:26:48;;;;;;;7.90;6.80;;;;;;;5.62;57.77;94765.69;5049181;28;20285;-70
2023/01/18 05:29:14;;;;;;;6.17;5.57;;;;;;;5.66;57.52;94769.56;5052033;28;20186;-71
2023/01/18 05:31:40;;;;;;;5.50;5.00;;;;;;;5.68;57.80;94777.97;5049254;28;21863;-69
2023/01/18 05:34:05;;;;;;;8.67;6.23;;;;;;;5.67;57.60;94788.53;5055880;28;20206;-69
2023/01/18 05:36:31;;;;;;;8.20;6.57;;;;;;;5.62;56.94;94786.50;5049097;28;20855;-70
2023/01/18 05:38:56;;;;;;;6.47;5.80;;;;;;;5.66;56.98;94792.94;5047487;28;20273;-70
2023/01/18 05:41:22;;;;;;;7.47;5.53;;;;;;;5.68;57.36;94793.56;5054069;28;20243;-70
2023/01/18 05:43:47;;;;;;;5.30;4.80;;;;;;;5.69;57.24;94797.75;5052625;28;20341;-70
2023/01/18 05:46:13;;;;;;;4.70;4.30;;;;;;;5.68;56.92;94801.34;5052146;28;20286;-69
2023/01/18 05:48:38;;;;;;;4.83;4.37;;;;;;;5.53;57.23;94803.97;5055423;28;20186;-71
2023/01/18 05:51:08;;;;;;;5.90;5.30;;;;;;;5.54;57.18;94812.56;5050509;28;20708;-71
2023/01/18 05:53:34;;;;;;;4.40;4.00;;;;;;;5.50;57.46;94811.31;5042581;28;20195;-70
2023/01/18 05:56:02;;;;;;;5.27;4.77;;;;;;;5.41;57.49;94820.19;5051820;28;20428;-70
2023/01/18 05:58:27;;;;;;;5.03;4.20;;;;;;;5.42;57.53;94821.81;5051148;28;20737;-70
2023/01/18 06:00:53;;;;;;;4.13;3.73;;;;;;;5.42;57.97;94838.19;5046104;28;20430;-71
2023/01/18 06:03:19;;;;;;;4.63;4.00;;;;;;;5.44;57.10;94840.59;5048184;28;20272;-72
2023/01/18 06:05:46;;;;;;;7.87;4.13;;;;;;;5.50;57.90;94847.69;5044513;28;20197;-71
2023/01/18 06:08:11;;;;;;;5.20;4.70;;;;;;;5.48;57.44;94854.84;5051009;28;20429;-71
2023/01/18 06:10:37;;;;;;;6.67;4.70;;;;;;;5.45;57.54;94857.78;5051804;28;20515;-72
2023/01/18 06:13:04;;;;;;;4.83;4.30;;;;;;;5.52;57.94;94869.91;5050221;28;20203;-71
2023/01/18 06:15:29;;;;;;;5.13;4.60;;;;;;;5.50;57.73;94877.06;5047860;28;21142;-72
2023/01/18 06:17:54;;;;;;;5.40;4.87;;;;;;;5.55;57.46;94884.31;5061895;28;20421;-69
2023/01/18 06:20:20;;;;;;;6.20;4.50;;;;;;;5.55;57.65;94886.91;5063397;28;20274;-70
2023/01/18 06:22:45;;;;;;;4.60;4.20;;;;;;;5.56;57.62;94891.13;5052918;28;20290;-70
2023/01/18 06:25:11;;;;;;;4.60;4.20;;;;;;;5.57;57.52;94891.94;5063525;28;20273;-70
2023/01/18 06:27:38;;;;;;;4.27;3.93;;;;;;;5.46;57.50;94900.97;5056888;28;20182;-71
2023/01/18 06:30:05;;;;;;;4.30;3.90;;;;;;;5.46;58.19;94900.97;5066427;28;20279;-69
2023/01/18 06:32:31;;;;;;;4.20;3.80;;;;;;;5.51;57.15;94896.84;5060332;28;20535;-71
2023/01/18 06:34:56;;;;;;;5.30;3.67;;;;;;;5.58;57.17;94902.16;5064738;28;20507;-70
2023/01/18 06:37:21;;;;;;;5.23;4.40;;;;;;;5.51;57.47;94911.66;5061024;28;20906;-72
2023/01/18 06:39:47;;;;;;;5.13;3.83;;;;;;;5.41;57.84;94905.91;5049598;28;20304;-71
2023/01/18 06:42:12;;;;;;;4.97;3.73;;;;;;;5.37;57.61;94916.63;5049918;28;20180;-70
2023/01/18 06:44:38;;;;;;;4.27;3.87;;;;;;;5.43;58.13;94919.50;5049449;28;20251;-70
2023/01/18 06:47:03;;;;;;;6.90;4.13;;;;;;;5.49;58.45;94924.00;5048292;28;20663;-71
2023/01/18 06:49:29;;;;;;;5.17;4.60;;;;;;;5.41;57.62;94924.88;5056744;28;20557;-69
2023/01/18 06:51:54;;;;;;;4.93;4.40;;;;;;;5.48;58.24;94927.59;5064918;28;20216;-73
2023/01/18 06:54:20;;;;;;;4.90;4.40;;;;;;;5.44;58.18;94934.94;5062033;28;20195;-72
2023/01/18 06:56:47;;;;;;;5.80;4.53;;;;;;;5.49;57.77;94942.19;5066941;28;20606;-69
2023/01/18 06:59:12;;;;;;;5.87;4.83;;;;;;;5.49;57.22;94939.59;5063422;28;20181;-72
2023/01/18 07:01:37;;;;;;;6.20;4.97;;;;;;;5.49;57.79;94952.59;5055862;28;20424;-70
2023/01/18 07:04:04;;;;;;;5.80;4.80;;;;;;;5.51;57.23;94966.22;5063718;28;20214;-72
2023/01/18 07:06:31;;;;;;;5.00;4.50;;;;;;;5.53;57.31;94961.66;5051730;28;20174;-70
2023/01/18 07:08:56;;;;;;;5.90;4.43;;;;;;;5.49;57.69;94968.16;5066239;28;20518;-72
2023/01/18 07:11:22;;;;;;;5.60;5.00;;;;;;;5.46;57.24;94977.13;5061838;28;20504;-71
2023/01/18 07:13:48;;;;;;;4.63;4.13;;;;;;;5.38;56.99;94977.19;5059253;28;20617;-72
2023/01/18 07:16:16;;;;;;;5.23;4.60;;;;;;;5.37;57.22;94983.34;5059744;28;20661;-71
2023/01/18 07:18:44;;;;;;;9.30;5.30;;;;;;;5.34;57.63;94986.31;5066769;28;20872;-71
2023/01/18 07:21:10;;;;;;;7.63;5.00;;;;;;;5.32;57.47;94994.25;5046889;28;20928;-71
2023/01/18 07:23:37;;;;;;;8.00;5.20;;;;;;;5.28;56.83;94998.22;5047437;28;20456;-72
2023/01/18 07:26:04;;;;;;;4.40;4.00;;;;;;;5.25;57.82;95006.34;5065945;28;20231;-71
2023/01/18 07:28:30;;;;;;;5.20;4.70;;;;;;;5.26;57.22;95009.72;5056243;28;20420;-71
2023/01/18 07:30:56;;;;;;;7.27;5.07;;;;;;;5.27;58.39;95003.56;5070694;28;20421;-71
2023/01/18 07:33:21;;;;;;;8.43;4.90;;;;;;;5.25;57.97;95019.31;5056457;28;21064;-70
2023/01/18 07:35:46;;;;;;;6.73;4.67;;;;;;;5.25;58.04;95027.13;5067713;28;20269;-71
2023/01/18 07:38:12;;;;;;;7.30;4.83;;;;;;;5.30;58.12;95032.59;5040759;28;20321;-72
2023/01/18 07:40:37;;;;;;;6.80;5.03;;;;;;;5.33;57.22;95041.84;5032209;28;20270;-71
2023/01/18 07:43:03;;;;;;;5.53;5.00;;;;;;;5.32;56.89;95046.22;5036502;28;20250;-72
2023/01/18 07:45:28;;;;;;;5.30;4.57;;;;;;;5.31;57.25;95039.41;5029891;28;20301;-71
2023/01/18 07:47:54;;;;;;;6.73;5.50;;;;;;;5.35;57.02;95035.47;5035120;28;20187;-71
2023/01/18 07:50:21;;;;;;;6.60;5.17;;;;;;;5.31;57.25;95047.19;5051667;28;20195;-71
2023/01/18 07:52:46;;;;;;;9.00;6.50;;;;;;;5.21;56.97;95055.22;5038344;28;20674;-71
2023/01/18 07:55:12;;;;;;;9.10;6.03;;;;;;;5.29;56.65;95059.56;5050030;28;20430;-72
2023/01/18 07:57:37;;;;;;;6.97;6.07;;;;;;;5.22;57.14;95063.81;5040197;28;20203;-72
2023/01/18 08:00:06;;;;;;;7.37;5.60;;;;;;;5.16;56.99;95061.91;5051409;28;20670;-72
2023/01/18 08:02:32;;;;;;;7.10;5.93;;;;;;;5.14;57.03;95069.06;5042967;28;20205;-72
2023/01/18 08:04:58;;;;;;;6.60;5.60;;;;;;;5.08;56.41;95079.13;5052555;28;20892;-73
2023/01/18 08:07:24;;;;;;;7.83;5.83;;;;;;;5.06;57.37;95077.69;5047779;28;20510;-71
2023/01/18 08:09:49;;;;;;;6.53;5.63;;;;;;;5.10;57.26;95081.59;5036951;28;20191;-72
2023/01/18 08:12:17;;;;;;;6.70;5.97;;;;;;;5.13;56.31;95094.19;5046486;28;20432;-71
2023/01/18 08:14:43;;;;;;;9.30;6.30;;;;;;;5.02;56.70;95092.81;5044687;28;20226;-72
2023/01/18 08:17:09;;;;;;;9.87;7.53;;;;;;;5.05;56.09;95095.03;5036382;28;20430;-73
2023/01/18 08:19:35;;;;;;;12.53;7.70;;;;;;;5.11;56.78;95103.16;5044496;28;20416;-72
2023/01/18 08:22:00;;;;;;;13.77;10.23;;;;;;;5.14;56.98;95105.41;5042524;28;20206;-70
2023/01/18 08:24:26;;;;;;;10.37;7.47;;;;;;;5.15;56.38;95112.22;5049540;28;20293;-72
2023/01/18 08:26:51;;;;;;;12.80;8.23;;;;;;;5.25;56.40;95128.41;5043919;28;20206;-72
2023/01/18 08:29:17;;;;;;;9.60;7.83;;;;;;;5.23;56.97;95130.34;5047245;28;20252;-72
2023/01/18 08:31:42;;;;;;;11.47;9.30;;;;;;;5.29;56.78;95140.09;5047610;28;20203;-71
2023/01/18 08:34:08;;;;;;;11.40;7.97;;;;;;;5.32;56.59;95144.13;5044521;28;20281;-72
2023/01/18 08:36:33;;;;;;;11.27;7.73;;;;;;;5.32;56.65;95146.72;5028073;28;20268;-71
2023/01/18 08:38:58;;;;;;;10.70;7.50;;;;;;;5.35;56.31;95154.19;5037474;28;20337;-71
2023/01/18 08:41:29;;;;;;;12.73;7.73;;;;;;;5.31;56.41;95153.69;5012026;28;20199;-71
2023/01/18 08:43:55;;;;;;;8.67;7.00;;;;;;;5.30;56.50;95162.44;5049224;28;20206;-73
2023/01/18 08:46:21;;;;;;;8.30;7.10;;;;;;;5.31;56.35;95169.25;5058264;28;20422;-72
2023/01/18 08:48:51;;;;;;;7.93;6.70;;;;;;;5.28;56.23;95174.81;5054061;28;20472;-72
2023/01/18 08:51:17;;;;;;;9.20;6.90;;;;;;;5.29;55.31;95181.63;5047723;28;20179;-73
2023/01/18 08:53:43;;;;;;;9.60;7.80;;;;;;;5.31;56.23;95187.44;5059365;28;20964;-72
2023/01/18 08:56:09;;;;;;;9.23;6.90;;;;;;;5.30;55.89;95188.44;5055359;28;20440;-71
2023/01/18 08:58:34;;;;;;;12.13;7.13;;;;;;;5.25;56.19;95190.72;5056826;28;20449;-71
2023/01/18 09:01:06;;;;;;;11.83;7.17;;;;;;;5.18;56.06;95194.97;5052152;28;20186;-71
2023/01/18 09:03:32;;;;;;;7.97;7.17;;;;;;;5.21;55.90;95192.03;5058193;28;20202;-71
2023/01/18 09:06:01;;;;;;;8.13;6.90;;;;;;;5.17;56.11;95201.13;5054979;28;20416;-71
2023/01/18 09:08:27;;;;;;;8.13;6.03;;;;;;;5.23;56.48;95206.47;5045075;28;20193;-71
2023/01/18 09:10:52;;;;;;;7.33;6.37;;;;;;;5.28;56.00;95208.59;5055333;28;20437;-71
2023/01/18 09:13:18;;;;;;;7.90;6.70;;;;;;;5.29;56.43;95212.81;5050129;28;20199;-72
2023/01/18 09:15:45;;;;;;;9.00;6.10;;;;;;;5.22;56.06;95217.03;5043927;28;20194;-70
2023/01/18 09:18:11;;;;;;;10.33;5.70;;;;;;;5.31;55.11;95223.00;5043283;28;20183;-72
2023/01/18 09:20:37;;;;;;;8.10;6.00;;;;;;;5.32;55.92;95228.03;5062684;28;20947;-71
2023/01/18 09:23:04;;;;;;;8.30;6.10;;;;;;;5.34;56.05;95236.47;5049165;28;20442;-72
2023/01/18 09:25:30;;;;;;;7.80;6.50;;;;;;;5.27;55.82;95240.72;5046263;28;20182;-71
2023/01/18 09:27:55;;;;;;;8.27;5.90;;;;;;;5.29;56.50;95243.97;5049457;28;20905;-71
2023/01/18 09:30:21;;;;;;;7.93;5.40;;;;;;;5.39;55.99;95256.75;5046536;28;20183;-71
2023/01/18 09:32:46;;;;;;;5.90;5.00;;;;;;;5.39;55.66;95259.34;5043056;28;20304;-70
2023/01/18 09:35:16;;;;;;;6.27;5.50;;;;;;;5.45;56.09;95273.44;5053641;28;20810;-72
2023/01/18 09:37:43;;;;;;;10.10;5.27;;;;;;;5.43;55.48;95273.63;5051342;28;20239;-72
2023/01/18 09:40:14;;;;;;;6.00;5.40;;;;;;;5.46;55.30;95275.06;5046841;28;20568;-72
2023/01/18 09:42:43;;;;;;;6.00;4.70;;;;;;;5.42;55.42;95281.59;5054371;28;20477;-72
2023/01/18 09:45:20;;;;;;;6.83;6.13;;;;;;;5.47;55.43;95287.09;5054554;28;20503;-71
2023/01/18 09:47:46;;;;;;;6.77;5.40;;;;;;;5.45;55.51;95294.25;5048991;28;20425;-70
2023/01/18 09:50:12;;;;;;;11.27;5.90;;;;;;;5.47;55.49;95289.69;5064259;28;20432;-71
2023/01/18 09:53:06;;;;;;;6.60;5.73;;;;;;;5.50;55.53;95297.16;5064386;28;20214;-71
2023/01/18 09:55:45;;;;;;;11.93;6.20;;;;;;;5.46;55.69;95291.50;5057352;28;20281;-72
2023/01/18 09:58:26;;;;;;;6.97;6.20;;;;;;;5.29;55.09;95295.09;5048292;28;20413;-71
2023/01/18 10:00:55;;;;;;;9.73;5.80;;;;;;;5.31;55.91;95300.94;5064699;28;20507;-71
2023/01/18 10:03:28;;;;;;;6.40;5.80;;;;;;;5.42;56.09;95303.19;5064219;28;20476;-71
2023/01/18 10:06:07;;;;;;;8.40;6.00;;;;;;;5.52;56.19;95309.00;5063791;28;20428;-71
2023/01/18 10:08:48;;;;;;;10.73;5.70;;;;;;;5.53;55.42;95317.63;5058691;28;20554;-72
2023/01/18 10:11:21;;;;;;;7.70;5.50;;;;;;;5.47;55.69;95311.31;5062575;28;20424;-70
2023/01/18 10:14:17;;;;;;;5.90;5.00;;;;;;;5.49;55.67;95321.50;5061369;28;20458;-70
2023/01/18 10:16:42;;;;;;;8.73;5.73;;;;;;;5.56;56.07;95332.06;5062754;28;20470;-71
2023/01/18 10:19:19;;;;;;;6.20;5.27;;;;;;;5.54;55.78;95324.44;5054535;28;20427;-71
2023/01/18 10:21:58;;;;;;;5.93;5.30;;;;;;;5.51;55.58;95322.97;5060124;28;20187;-72
2023/01/18 10:24:24;;;;;;;7.73;5.10;;;;;;;5.51;55.56;95324.75;5056883;28;20818;-73
2023/01/18 10:26:52;;;;;;;7.73;5.40;;;;;;;5.51;55.52;95332.56;5052917;28;20452;-70
2023/01/18 10:29:43;;;;;;;6.50;5.17;;;;;;;5.47;55.78;95323.47;5063141;28;20210;-71
2023/01/18 10:32:13;;;;;;;7.27;5.10;;;;;;;5.52;55.18;95331.59;5045070;28;20517;-71
2023/01/18 10:34:43;;;;;;;6.67;5.40;;;;;;;5.57;55.77;95334.47;5059550;28;20788;-74
2023/01/18 10:37:14;;;;;;;6.17;5.57;;;;;;;5.62;55.01;95337.41;5058380;28;20429;-71
2023/01/18 10:39:56;;;;;;;6.07;5.40;;;;;;;5.65;55.39;95344.88;5030246;28;20421;-72
2023/01/18 10:42:28;;;;;;;7.50;5.37;;;;;;;5.71;55.42;95351.19;5044349;28;20453;-71
2023/01/18 10:44:53;;;;;;;8.80;6.87;;;;;;;5.71;55.09;95355.56;5060201;28;20941;-71
2023/01/18 10:47:19;;;;;;;8.70;5.70;;;;;;;5.66;54.79;95354.28;5063157;28;20508;-71
2023/01/18 10:49:49;;;;;;;7.70;5.60;;;;;;;5.67;55.27;95365.47;5060117;28;20265;-71
2023/01/18 10:52:31;;;;;;;7.17;6.20;;;;;;;5.74;55.60;95361.22;5065177;28;20417;-73
2023/01/18 10:55:00;;;;;;;6.60;5.90;;;;;;;5.75;55.49;95364.66;5058060;28;20890;-72
2023/01/18 10:57:52;;;;;;;8.30;6.10;;;;;;;5.77;55.31;95368.69;5060986;28;20460;-72
2023/01/18 11:00:22;;;;;;;8.77;5.70;;;;;;;5.76;54.87;95374.06;5062238;28;20472;-71
2023/01/18 11:02:50;;;;;;;15.23;6.87;;;;;;;5.78;55.34;95375.53;5062499;28;20452;-71
2023/01/18 11:05:20;;;;;;;9.00;6.63;;;;;;;5.76;55.42;95374.88;5052144;28;20465;-71
2023/01/18 11:07:46;;;;;;;14.00;6.50;;;;;;;5.77;54.88;95375.69;5059108;28;20448;-71
2023/01/18 11:10:25;;;;;;;9.60;7.27;;;;;;;5.79;55.68;95384.16;5062005;28;20449;-71
2023/01/18 11:12:51;;;;;;;5.93;5.33;;;;;;;5.81;55.07;95387.38;5068296;28;20601;-71
2023/01/18 11:15:17;;;;;;;7.83;6.00;;;;;;;5.79;54.47;95389.34;5045211;28;20513;-72
2023/01/18 11:17:45;;;;;;;12.30;6.80;;;;;;;5.78;54.27;95390.31;5056807;28;20440;-71
2023/01/18 11:20:32;;;;;;;7.40;5.70;;;;;;;5.67;54.43;95386.28;5047183;28;20436;-72
2023/01/18 11:23:00;;;;;;;8.33;6.30;;;;;;;5.62;54.44;95391.16;5054730;28;20564;-71
2023/01/18 11:25:44;;;;;;;6.60;5.60;;;;;;;5.69;54.98;95400.72;5066045;28;20414;-71
2023/01/18 11:28:23;;;;;;;8.37;6.10;;;;;;;5.63;54.55;95404.00;5061389;28;20412;-71
2023/01/18 11:30:53;;;;;;;10.70;5.90;;;;;;;5.55;54.03;95406.59;5062097;28;20432;-72
2023/01/18 11:33:19;;;;;;;8.00;6.13;;;;;;;5.55;54.57;95411.78;5054345;28;20441;-72
2023/01/18 11:35:45;;;;;;;9.37;6.20;;;;;;;5.60;55.33;95406.91;5066878;28;20486;-71
2023/01/18 11:38:17;;;;;;;12.20;6.23;;;;;;;5.68;54.87;95412.09;5060753;28;20424;-72
2023/01/18 11:40:43;;;;;;;8.60;5.23;;;;;;;5.63;54.64;95414.38;5056885;28;20182;-71
2023/01/18 11:43:21;;;;;;;8.80;5.70;;;;;;;5.63;54.46;95418.75;5054272;28;21704;-73
2023/01/18 11:45:54;;;;;;;6.03;4.90;;;;;;;5.61;54.39;95424.13;5049546;28;20436;-71
2023/01/18 11:48:31;;;;;;;8.30;5.87;;;;;;;5.62;54.41;95420.56;5040867;28;20488;-70
2023/01/18 11:51:06;;;;;;;10.87;5.40;;;;;;;5.66;54.11;95421.03;5051973;28;20414;-71
2023/01/18 11:53:48;;;;;;;8.83;5.80;;;;;;;5.69;54.49;95418.91;5052880;28;20443;-72
2023/01/18 11:56:39;;;;;;;8.37;5.50;;;;;;;5.64;54.14;95433.38;5070294;28;20425;-71
2023/01/18 11:59:12;;;;;;;8.77;5.27;;;;;;;5.61;53.74;95429.34;5062399;28;20436;-71
2023/01/18 12:02:05;;;;;;;8.00;5.53;;;;;;;5.62;53.89;95432.72;5067874;28;20428;-73
2023/01/18 12:05:04;;;;;;;5.77;4.83;;;;;;;5.61;54.21;95437.13;5065284;28;20879;-71
2023/01/18 12:07:45;;;;;;;7.60;4.53;;;;;;;5.65;54.58;95448.00;5074035;28;21163;-71
2023/01/18 12:10:24;;;;;;;7.13;4.60;;;;;;;5.66;54.13;95447.84;5056347;28;20511;-71
2023/01/18 12:13:12;;;;;;;5.30;4.43;;;;;;;5.74;54.09;95451.41;5074118;28;21011;-71
2023/01/18 12:15:40;;;;;;;9.00;5.90;;;;;;;5.73;54.13;95457.59;5059874;28;20436;-70
2023/01/18 12:18:15;;;;;;;6.70;4.57;;;;;;;5.77;53.89;95462.28;5072220;28;20897;-73
2023/01/18 12:20:49;;;;;;;5.70;4.90;;;;;;;5.87;54.20;95464.72;5056806;28;20515;-70